• Join FlightAware (Why Join?)
  • Login
  • US Flag 
03:57AM EST


 

Airport Tracker/Info


-or-


 

Live Flight TrackerFlight Track Log ✈ N682RW ✈ 29-Jun-2014 ✈ KHOU - KDTW

Flight Track Log - Related Links

Times and Time Zones

All times are in EDT time to prevent confusion due to time zone crossing. See the N682RW flight status page for this flight to view local times or setup timezone preferences in your user account.

Time Position Orientation Groundspeed Altitude Reporting Facility
EDT Latitude Longitude Course Direction KTS MPH feet Rate Location/Type
07:54PM 29.6283 -95.2586 62° Northeast 169 194 800  Level Houston Center
07:55PM 29.6511 -95.2103 62° Northeast 272 313 2,400 1,440 Climbing Houston Center
07:56PM 29.6786 -95.2186 345° North 273 314 3,100 2,880 Climbing Houston Center
07:56PM 29.7303 -95.2486 333° Northwest 305 351 5,400 3,000 Climbing Houston Center
07:57PM 29.7514 -95.2581 339° North 283 326 6,200 2,160 Climbing Houston Center
07:58PM 29.8317 -95.2883 342° North 303 349 8,600 2,520 Climbing Houston Center
07:59PM 29.9397 -95.2494 17° North 340 391 11,500 2,280 Climbing Houston Center
08:00PM 30.0392 -95.2244 12° North 360 414 13,400 2,040 Climbing Houston Center
08:01PM 30.1458 -95.2014 11° North 386 444 15,800 2,100 Climbing Houston Center
08:02PM 30.2542 -95.1697 14° North 395 455 17,800 2,040 Climbing Houston Center
08:03PM 30.3644 -95.1372 14° North 404 465 20,100 2,100 Climbing Houston Center
08:04PM 30.4894 -95.1025 13° North 409 471 22,200 1,920 Climbing Houston Center
08:05PM 30.5997 -95.0675 15° North 410 472 24,100 1,560 Climbing Houston Center
08:06PM 30.7017 -95.0036 28° Northeast 415 478 25,500 1,260 Climbing Houston Center
08:07PM 30.8031 -94.9358 30° Northeast 418 481 26,800 1,320 Climbing Houston Center
08:08PM 30.9064 -94.8692 29° Northeast 422 486 28,300 1,380 Climbing Houston Center
08:09PM 31.0308 -94.7892 29° Northeast 424 488 29,700 1,260 Climbing Houston Center
08:10PM 31.1319 -94.7214 30° Northeast 424 488 31,000 600 Climbing Houston Center
08:11PM 31.2378 -94.6553 28° Northeast 429 494 31,000  Level Houston Center
08:12PM 31.3433 -94.5864 29° Northeast 456 525 31,000  Level Houston Center
08:13PM 31.4703 -94.5033 29° Northeast 441 507 31,000  Level Houston Center
08:14PM 31.5767 -94.4308 30° Northeast 441 507 31,000  Level Houston Center
08:15PM 31.6611 -94.3719 31° Northeast 443 510 31,000  Level Fort Worth Center
08:16PM 31.7567 -94.2783 40° Northeast 445 512 31,000  Level Fort Worth Center
08:17PM 31.8525 -94.1858 39° Northeast 446 513 31,000  Level Fort Worth Center
08:18PM 31.9681 -94.0744 39° Northeast 449 517 31,000  Level Fort Worth Center
08:19PM 32.0653 -93.9811 39° Northeast 449 517 31,000  Level Fort Worth Center
08:20PM 32.1633 -93.8864 39° Northeast 451 519 31,000  Level Fort Worth Center
08:21PM 32.2636 -93.7867 40° Northeast 455 524 31,000  Level Fort Worth Center
08:22PM 32.3603 -93.6936 39° Northeast 453 521 31,000  Level Fort Worth Center
08:23PM 32.4572 -93.6000 39° Northeast 453 521 31,100 660 Climbing Fort Worth Center
08:24PM 32.5514 -93.5053 40° Northeast 449 517 32,400 900 Climbing Fort Worth Center
08:26PM 32.6650 -93.3953 39° Northeast 444 511 33,000 240 Climbing Fort Worth Center
08:27PM 32.7600 -93.3011 40° Northeast 445 512 33,000 300 Level Fort Worth Center
08:28PM 32.8556 -93.2081 39° Northeast 445 512 33,700 660 Climbing Fort Worth Center
08:29PM 32.9478 -93.1161 40° Northeast 444 511 34,400 540 Climbing Fort Worth Center
08:30PM 33.0411 -93.0244 39° Northeast 439 505 34,900 240 Climbing Fort Worth Center
08:31PM 33.1525 -92.9139 40° Northeast 439 505 35,000  Climbing Fort Worth Center
08:32PM 33.2475 -92.8186 40° Northeast 445 512 35,000  Level Fort Worth Center
08:33PM 33.3433 -92.7231 40° Northeast 449 517 35,000  Level Fort Worth Center
08:34PM 33.4386 -92.6267 40° Northeast 449 517 35,000  Level Fort Worth Center
08:35PM 33.5356 -92.5303 40° Northeast 451 519 35,000  Level Fort Worth Center
08:36PM 33.6522 -92.4114 40° Northeast 455 524 35,000  Level Fort Worth Center
08:37PM 33.7492 -92.3139 40° Northeast 455 524 35,000  Level Fort Worth Center
08:38PM 33.8672 -92.1969 39° Northeast 456 525 35,000  Level Memphis Center
08:39PM 33.9642 -92.0983 40° Northeast 457 526 35,000  Level Memphis Center
08:40PM 34.0808 -91.9789 40° Northeast 457 526 35,000  Level Memphis Center
08:41PM 34.1817 -91.8742 41° Northeast 460 529 35,000  Level Memphis Center
08:42PM 34.2778 -91.7742 41° Northeast 460 529 35,000  Level Memphis Center
08:43PM 34.3617 -91.6875 40° Northeast 460 529 35,000  Level Memphis Center
08:44PM 34.4794 -91.5664 40° Northeast 460 529 35,000  Level Memphis Center
08:45PM 34.5772 -91.4647 41° Northeast 460 529 35,000  Level Memphis Center
08:46PM 34.6756 -91.3628 40° Northeast 461 531 35,000  Level Memphis Center
08:47PM 34.7731 -91.2603 41° Northeast 461 531 35,000  Level Memphis Center
08:48PM 34.8706 -91.1594 40° Northeast 461 531 35,000  Level Memphis Center
08:49PM 34.9675 -91.0564 41° Northeast 461 531 35,000  Level Memphis Center
08:50PM 35.0639 -90.9558 40° Northeast 460 529 35,000  Level Memphis Center
08:52PM 35.1594 -90.8533 41° Northeast 459 528 35,000  Level Memphis Center
08:53PM 35.2564 -90.7500 41° Northeast 459 528 35,000  Level Memphis Center
08:54PM 35.3739 -90.6231 41° Northeast 461 531 35,000  Level Memphis Center
08:55PM 35.4708 -90.5200 41° Northeast 461 531 35,000  Level Memphis Center
08:56PM 35.5681 -90.4164 41° Northeast 461 531 35,000  Level Memphis Center
08:57PM 35.6642 -90.3106 42° Northeast 461 531 35,000  Level Memphis Center
08:58PM 35.7664 -90.2003 41° Northeast 461 531 35,000  Level Memphis Center
08:59PM 35.8647 -90.0950 41° Northeast 462 532 35,000  Level Memphis Center
09:00PM 35.9622 -89.9881 42° Northeast 466 536 35,000  Level Memphis Center
09:01PM 36.0611 -89.8797 42° Northeast 469 540 35,000  Level Memphis Center
09:02PM 36.1594 -89.7728 41° Northeast 471 542 35,000  Level Memphis Center
09:03PM 36.2583 -89.6631 42° Northeast 471 542 35,000  Level Memphis Center
09:04PM 36.3578 -89.5556 41° Northeast 472 543 35,000  Level Memphis Center
09:05PM 36.4597 -89.4442 41° Northeast 472 543 35,000  Level Memphis Center
09:06PM 36.5611 -89.3289 42° Northeast 478 550 35,000  Level Memphis Center
09:07PM 36.6597 -89.2172 42° Northeast 477 549 35,000  Level Memphis Center
09:08PM 36.7672 -89.1197 36° Northeast 483 556 35,000  Level Memphis Center
09:09PM 36.8828 -89.0389 29° Northeast 482 555 35,000  Level Memphis Center
09:10PM 36.9967 -88.9553 30° Northeast 480 552 35,000  Level Memphis Center
09:11PM 37.1342 -88.8553 30° Northeast 478 550 35,000  Level Memphis Center
09:12PM 37.2503 -88.7719 30° Northeast 478 550 35,000  Level Memphis Center
09:13PM 37.3569 -88.6694 37° Northeast 480 552 35,000  Level Memphis Center
09:14PM 37.4658 -88.5697 36° Northeast 481 554 35,000  Level Memphis Center
09:15PM 37.5747 -88.4714 36° Northeast 481 554 35,000  Level Memphis Center
09:16PM 37.6833 -88.3753 35° Northeast 481 554 35,000  Level Memphis Center
09:17PM 37.7903 -88.2756 36° Northeast 480 552 35,000  Level Memphis Center
09:18PM 37.8978 -88.1794 35° Northeast 477 549 35,000  Level Memphis Center
09:19PM 38.0153 -88.0708 36° Northeast 477 549 35,000  Level Memphis Center
09:20PM 38.1244 -87.9697 36° Northeast 478 550 35,000  Level Memphis Center
09:21PM 38.2692 -87.8367 36° Northeast 480 552 35,000 -180 Level Indianapolis Center
09:22PM 38.3800 -87.7367 35° Northeast 481 554 34,600 -660 Descending Indianapolis Center
09:24PM 38.4881 -87.6339 37° Northeast 475 547 33,700 -780 Descending Indianapolis Center
09:25PM 38.5925 -87.5389 35° Northeast 467 537 33,100 -360 Descending Indianapolis Center
09:26PM 38.6983 -87.4386 36° Northeast 467 537 33,000 -60 Descending Indianapolis Center
09:27PM 38.8044 -87.3381 36° Northeast 467 537 33,000  Level Indianapolis Center
09:28PM 38.9119 -87.2369 36° Northeast 470 541 33,000  Level Indianapolis Center
09:29PM 39.0183 -87.1347 37° Northeast 471 542 33,000  Level Indianapolis Center
09:30PM 39.1253 -87.0325 37° Northeast 473 544 33,000  Level Indianapolis Center
09:31PM 39.2347 -86.9286 36° Northeast 473 544 33,000  Level Indianapolis Center
09:32PM 39.3406 -86.8278 36° Northeast 473 544 33,000  Level Indianapolis Center
09:33PM 39.4469 -86.7247 37° Northeast 473 544 33,000  Level Indianapolis Center
09:34PM 39.5539 -86.6214 37° Northeast 475 547 33,000  Level Indianapolis Center
09:35PM 39.6611 -86.5178 37° Northeast 475 547 33,000  Level Indianapolis Center
09:36PM 39.7708 -86.4147 36° Northeast 476 548 33,000  Level Indianapolis Center
09:37PM 39.8822 -86.3033 37° Northeast 482 555 33,000  Level Indianapolis Center
09:38PM 39.9883 -86.1956 38° Northeast 480 552 33,000  Level Indianapolis Center
09:39PM 40.1169 -86.0664 38° Northeast 481 554 33,000  Level Indianapolis Center
09:40PM 40.2236 -85.9594 37° Northeast 481 554 33,000  Level Indianapolis Center
09:41PM 40.3303 -85.8517 38° Northeast 482 555 33,000 -600 Level Indianapolis Center
09:42PM 40.4364 -85.7442 38° Northeast 482 555 31,800 -1,860 Descending Indianapolis Center
09:43PM 40.5414 -85.6375 38° Northeast 482 555 29,300 -2,280 Descending Indianapolis Center
09:44PM 40.6450 -85.5319 38° Northeast 478 550 27,200 -2,220 Descending Indianapolis Center
09:45PM 40.7458 -85.4289 38° Northeast 464 534 24,900 -1,980 Descending Indianapolis Center
09:46PM 40.8464 -85.3256 38° Northeast 460 529 23,200 -1,320 Descending Indianapolis Center
09:47PM 40.9447 -85.2225 38° Northeast 457 526 22,200 -960 Descending Indianapolis Center
09:48PM 41.0842 -85.0736 39° Northeast 442 509 21,000 -540 Descending Chicago Center
09:49PM 41.1778 -84.9739 39° Northeast 438 504 21,000  Level Chicago Center
09:50PM 41.2719 -84.8728 39° Northeast 438 504 21,000  Level Chicago Center
09:51PM 41.3656 -84.7700 39° Northeast 439 505 21,000 -1,080 Level Chicago Center
09:52PM 41.4572 -84.6206 51° Northeast 439 505 18,800 -2,100 Descending Chicago Center
09:53PM 41.5319 -84.5039 49° Northeast 422 486 16,800 -2,100 Descending Chicago Center
09:54PM 41.6031 -84.3922 50° Northeast 400 460 14,600 -1,620 Descending Chicago Center
09:56PM 41.6725 -84.2817 50° Northeast 391 450 13,500 -1,080 Descending Chicago Center
09:56PM 41.7269 -84.1983 49° Northeast 381 438 12,700 -960 Descending Cleveland Center
09:57PM 41.7742 -84.1236 50° Northeast 377 434 12,100 -420 Descending Cleveland Center
09:58PM 41.8381 -84.0192 51° Northeast 367 422 12,000 -60 Descending Cleveland Center
09:59PM 41.9119 -83.9247 44° Northeast 367 422 12,000  Level Cleveland Center
10:00PM 41.9858 -83.8297 44° Northeast 367 422 12,000  Level Cleveland Center
10:01PM 42.0589 -83.7356 44° Northeast 367 422 12,000 -180 Level Cleveland Center
10:02PM 42.1342 -83.6386 44° Northeast 330 380 11,700 -840 Descending Cleveland Center
10:03PM 42.1947 -83.5608 44° Northeast 313 360 10,400 -1,740 Descending Cleveland Center
10:04PM 42.2647 -83.5022 32° Northeast 273 314 8,200 -1,740 Descending Cleveland Center
10:05PM 42.3414 -83.4525 26° Northeast 273 314 6,900 -840 Descending Cleveland Center
10:06PM 42.3619 -83.3836 68° East 238 274 6,600 -600 Descending Cleveland Center
10:06PM 42.3631 -83.3708 83° East 249 287 6,300 -2,220 Descending Cleveland Center
10:07PM 42.3672 -83.2881 86° East 236 272 4,400 -1,980 Descending Cleveland Center
10:07PM 42.3683 -83.2922 290° West 244 281 4,400 -1,380 Level Cleveland Center
10:08PM 42.3322 -83.2522 141° Southeast 179 206 3,000 -1,500 Descending Cleveland Center
10:08PM 42.3344 -83.2514 15° North 226 260 2,900 -720 Descending Cleveland Center
10:09PM 42.2947 -83.2781 206° Southwest 143 165 2,300 -600 Descending Cleveland Center
10:09PM 42.2964 -83.2786 346° North 165 190 2,300 -840 Level Cleveland Center
10:10PM 42.2611 -83.3044 208° Southwest 125 144 1,500 -900 Descending Cleveland Center
10:10PM 42.2569 -83.3069 204° Southwest 141 162 1,400 -600 Descending Cleveland Center
10:11PM 42.2303 -83.3253 207° Southwest 126 145 900 -300 Descending Cleveland Center
10:11PM 42.2306 -83.3267 285° West 133 153 1,100 960 Climbing Cleveland Center